sensor_id;sensor_type;location;lat;lon;timestamp;P1;durP1;ratioP1;P2;durP2;ratioP2
10851;SDS011;5479;52.046;6.314;2023-04-03T00:00:59;2.87;;;1.50;;
10851;SDS011;5479;52.046;6.314;2023-04-03T00:03:28;3.47;;;1.40;;
10851;SDS011;5479;52.046;6.314;2023-04-03T00:05:56;2.77;;;1.60;;
10851;SDS011;5479;52.046;6.314;2023-04-03T00:08:24;2.00;;;1.20;;
10851;SDS011;5479;52.046;6.314;2023-04-03T00:10:52;3.80;;;1.87;;
10851;SDS011;5479;52.046;6.314;2023-04-03T00:15:51;3.10;;;1.70;;
10851;SDS011;5479;52.046;6.314;2023-04-03T00:18:19;3.37;;;1.57;;
10851;SDS011;5479;52.046;6.314;2023-04-03T00:20:49;3.20;;;1.57;;
10851;SDS011;5479;52.046;6.314;2023-04-03T00:23:17;3.50;;;1.57;;
10851;SDS011;5479;52.046;6.314;2023-04-03T00:25:45;4.27;;;2.07;;
10851;SDS011;5479;52.046;6.314;2023-04-03T00:28:13;4.20;;;1.50;;
10851;SDS011;5479;52.046;6.314;2023-04-03T00:30:41;3.67;;;1.70;;
10851;SDS011;5479;52.046;6.314;2023-04-03T00:33:09;4.33;;;1.70;;
10851;SDS011;5479;52.046;6.314;2023-04-03T00:35:38;3.70;;;1.70;;
10851;SDS011;5479;52.046;6.314;2023-04-03T00:38:08;2.70;;;1.50;;
10851;SDS011;5479;52.046;6.314;2023-04-03T00:40:38;4.73;;;1.67;;
10851;SDS011;5479;52.046;6.314;2023-04-03T00:43:10;4.23;;;1.47;;
10851;SDS011;5479;52.046;6.314;2023-04-03T00:45:41;3.60;;;1.70;;
10851;SDS011;5479;52.046;6.314;2023-04-03T00:48:11;4.37;;;1.80;;
10851;SDS011;5479;52.046;6.314;2023-04-03T00:50:43;3.40;;;1.53;;
10851;SDS011;5479;52.046;6.314;2023-04-03T00:53:14;3.40;;;1.80;;
10851;SDS011;5479;52.046;6.314;2023-04-03T00:55:45;5.37;;;2.20;;
10851;SDS011;5479;52.046;6.314;2023-04-03T00:58:15;3.73;;;1.50;;
10851;SDS011;5479;52.046;6.314;2023-04-03T01:00:46;4.30;;;1.60;;
10851;SDS011;5479;52.046;6.314;2023-04-03T01:03:22;4.00;;;1.77;;
10851;SDS011;5479;52.046;6.314;2023-04-03T01:05:50;5.03;;;2.00;;
10851;SDS011;5479;52.046;6.314;2023-04-03T01:08:20;3.73;;;1.97;;
10851;SDS011;5479;52.046;6.314;2023-04-03T01:10:48;3.20;;;1.70;;
10851;SDS011;5479;52.046;6.314;2023-04-03T01:13:20;3.77;;;1.57;;
10851;SDS011;5479;52.046;6.314;2023-04-03T01:15:50;5.43;;;1.80;;
10851;SDS011;5479;52.046;6.314;2023-04-03T01:18:19;6.07;;;1.87;;
10851;SDS011;5479;52.046;6.314;2023-04-03T01:23:59;3.90;;;1.67;;
10851;SDS011;5479;52.046;6.314;2023-04-03T01:26:39;5.40;;;1.93;;
10851;SDS011;5479;52.046;6.314;2023-04-03T01:29:07;6.07;;;1.83;;
10851;SDS011;5479;52.046;6.314;2023-04-03T01:31:45;4.67;;;1.80;;
10851;SDS011;5479;52.046;6.314;2023-04-03T01:34:16;5.80;;;1.83;;
10851;SDS011;5479;52.046;6.314;2023-04-03T01:36:44;4.50;;;1.80;;
10851;SDS011;5479;52.046;6.314;2023-04-03T01:39:12;5.47;;;2.13;;
10851;SDS011;5479;52.046;6.314;2023-04-03T01:41:40;4.80;;;2.10;;
10851;SDS011;5479;52.046;6.314;2023-04-03T01:44:08;4.67;;;1.80;;
10851;SDS011;5479;52.046;6.314;2023-04-03T01:46:37;3.63;;;1.60;;
10851;SDS011;5479;52.046;6.314;2023-04-03T01:49:06;3.80;;;1.70;;
10851;SDS011;5479;52.046;6.314;2023-04-03T01:51:34;4.00;;;1.70;;
10851;SDS011;5479;52.046;6.314;2023-04-03T01:54:02;4.40;;;1.73;;
10851;SDS011;5479;52.046;6.314;2023-04-03T01:56:30;4.30;;;1.70;;
10851;SDS011;5479;52.046;6.314;2023-04-03T01:58:58;3.40;;;1.97;;
10851;SDS011;5479;52.046;6.314;2023-04-03T02:01:26;3.67;;;1.80;;
10851;SDS011;5479;52.046;6.314;2023-04-03T02:03:54;4.43;;;1.90;;
10851;SDS011;5479;52.046;6.314;2023-04-03T02:06:23;3.90;;;1.90;;
10851;SDS011;5479;52.046;6.314;2023-04-03T02:08:51;5.00;;;1.90;;
10851;SDS011;5479;52.046;6.314;2023-04-03T02:11:19;7.27;;;1.90;;
10851;SDS011;5479;52.046;6.314;2023-04-03T02:13:48;3.67;;;1.87;;
10851;SDS011;5479;52.046;6.314;2023-04-03T02:16:16;3.97;;;1.60;;
10851;SDS011;5479;52.046;6.314;2023-04-03T02:18:44;4.10;;;1.70;;
10851;SDS011;5479;52.046;6.314;2023-04-03T02:21:12;5.10;;;2.00;;
10851;SDS011;5479;52.046;6.314;2023-04-03T02:23:41;6.30;;;2.27;;
10851;SDS011;5479;52.046;6.314;2023-04-03T02:26:10;3.80;;;2.00;;
10851;SDS011;5479;52.046;6.314;2023-04-03T02:28:39;4.33;;;1.97;;
10851;SDS011;5479;52.046;6.314;2023-04-03T02:31:07;5.13;;;1.90;;
10851;SDS011;5479;52.046;6.314;2023-04-03T02:33:36;4.93;;;2.00;;
10851;SDS011;5479;52.046;6.314;2023-04-03T02:36:05;4.50;;;1.87;;
10851;SDS011;5479;52.046;6.314;2023-04-03T02:38:34;4.77;;;2.07;;
10851;SDS011;5479;52.046;6.314;2023-04-03T02:41:04;3.03;;;1.70;;
10851;SDS011;5479;52.046;6.314;2023-04-03T02:43:33;4.27;;;1.80;;
10851;SDS011;5479;52.046;6.314;2023-04-03T02:46:01;7.37;;;2.17;;
10851;SDS011;5479;52.046;6.314;2023-04-03T02:48:29;5.57;;;1.90;;
10851;SDS011;5479;52.046;6.314;2023-04-03T02:50:57;3.53;;;1.97;;
10851;SDS011;5479;52.046;6.314;2023-04-03T02:53:25;4.47;;;2.03;;
10851;SDS011;5479;52.046;6.314;2023-04-03T02:55:53;3.23;;;1.60;;
10851;SDS011;5479;52.046;6.314;2023-04-03T02:58:22;3.27;;;1.80;;
10851;SDS011;5479;52.046;6.314;2023-04-03T03:00:50;3.27;;;1.70;;
10851;SDS011;5479;52.046;6.314;2023-04-03T03:03:18;4.73;;;2.23;;
10851;SDS011;5479;52.046;6.314;2023-04-03T03:05:46;3.17;;;1.70;;
10851;SDS011;5479;52.046;6.314;2023-04-03T03:08:14;3.93;;;1.73;;
10851;SDS011;5479;52.046;6.314;2023-04-03T03:10:42;4.23;;;1.70;;
10851;SDS011;5479;52.046;6.314;2023-04-03T03:13:12;3.70;;;2.00;;
10851;SDS011;5479;52.046;6.314;2023-04-03T03:15:41;4.27;;;1.63;;
10851;SDS011;5479;52.046;6.314;2023-04-03T03:18:09;3.63;;;1.80;;
10851;SDS011;5479;52.046;6.314;2023-04-03T03:20:37;3.87;;;1.70;;
10851;SDS011;5479;52.046;6.314;2023-04-03T03:23:04;5.60;;;1.80;;
10851;SDS011;5479;52.046;6.314;2023-04-03T03:25:32;3.70;;;1.83;;
10851;SDS011;5479;52.046;6.314;2023-04-03T03:28:00;3.10;;;1.67;;
10851;SDS011;5479;52.046;6.314;2023-04-03T03:30:28;3.37;;;1.63;;
10851;SDS011;5479;52.046;6.314;2023-04-03T03:32:58;5.17;;;1.80;;
10851;SDS011;5479;52.046;6.314;2023-04-03T03:35:25;6.30;;;2.30;;
10851;SDS011;5479;52.046;6.314;2023-04-03T03:37:53;5.20;;;1.90;;
10851;SDS011;5479;52.046;6.314;2023-04-03T03:40:22;4.43;;;1.70;;
10851;SDS011;5479;52.046;6.314;2023-04-03T03:42:49;3.90;;;1.70;;
10851;SDS011;5479;52.046;6.314;2023-04-03T03:45:17;5.33;;;2.20;;
10851;SDS011;5479;52.046;6.314;2023-04-03T03:47:47;4.33;;;1.77;;
10851;SDS011;5479;52.046;6.314;2023-04-03T03:50:16;5.83;;;2.07;;
10851;SDS011;5479;52.046;6.314;2023-04-03T03:52:44;7.40;;;2.17;;
10851;SDS011;5479;52.046;6.314;2023-04-03T03:55:12;5.37;;;1.90;;
10851;SDS011;5479;52.046;6.314;2023-04-03T03:57:40;3.87;;;2.00;;
10851;SDS011;5479;52.046;6.314;2023-04-03T04:00:08;5.07;;;1.70;;
10851;SDS011;5479;52.046;6.314;2023-04-03T04:02:37;4.93;;;1.90;;
10851;SDS011;5479;52.046;6.314;2023-04-03T04:05:05;6.27;;;1.97;;
10851;SDS011;5479;52.046;6.314;2023-04-03T04:07:35;4.63;;;2.10;;
10851;SDS011;5479;52.046;6.314;2023-04-03T04:10:03;4.80;;;2.07;;
10851;SDS011;5479;52.046;6.314;2023-04-03T04:12:32;6.03;;;2.00;;
10851;SDS011;5479;52.046;6.314;2023-04-03T04:15:02;2.93;;;1.80;;
10851;SDS011;5479;52.046;6.314;2023-04-03T04:17:30;3.77;;;1.80;;
10851;SDS011;5479;52.046;6.314;2023-04-03T04:19:58;3.73;;;1.90;;
10851;SDS011;5479;52.046;6.314;2023-04-03T04:22:26;4.60;;;1.80;;
10851;SDS011;5479;52.046;6.314;2023-04-03T04:24:55;4.77;;;2.20;;
10851;SDS011;5479;52.046;6.314;2023-04-03T04:27:23;4.43;;;1.90;;
10851;SDS011;5479;52.046;6.314;2023-04-03T04:29:51;5.03;;;2.10;;
10851;SDS011;5479;52.046;6.314;2023-04-03T04:32:19;4.00;;;2.07;;
10851;SDS011;5479;52.046;6.314;2023-04-03T04:34:47;4.43;;;2.13;;
10851;SDS011;5479;52.046;6.314;2023-04-03T04:37:15;5.43;;;1.90;;
10851;SDS011;5479;52.046;6.314;2023-04-03T04:39:42;5.80;;;2.23;;
10851;SDS011;5479;52.046;6.314;2023-04-03T04:42:12;4.80;;;1.77;;
10851;SDS011;5479;52.046;6.314;2023-04-03T04:44:40;2.97;;;1.70;;
10851;SDS011;5479;52.046;6.314;2023-04-03T04:47:08;4.73;;;1.90;;
10851;SDS011;5479;52.046;6.314;2023-04-03T04:49:36;3.87;;;1.80;;
10851;SDS011;5479;52.046;6.314;2023-04-03T04:52:04;4.30;;;2.00;;
10851;SDS011;5479;52.046;6.314;2023-04-03T04:54:32;5.83;;;2.37;;
10851;SDS011;5479;52.046;6.314;2023-04-03T04:57:00;4.43;;;1.90;;
10851;SDS011;5479;52.046;6.314;2023-04-03T04:59:32;5.73;;;1.97;;
10851;SDS011;5479;52.046;6.314;2023-04-03T05:02:00;4.00;;;1.80;;
10851;SDS011;5479;52.046;6.314;2023-04-03T05:04:28;4.87;;;2.00;;
10851;SDS011;5479;52.046;6.314;2023-04-03T05:06:56;6.33;;;2.13;;
10851;SDS011;5479;52.046;6.314;2023-04-03T05:09:25;6.97;;;2.20;;
10851;SDS011;5479;52.046;6.314;2023-04-03T05:11:53;4.90;;;1.77;;
10851;SDS011;5479;52.046;6.314;2023-04-03T05:14:22;4.13;;;1.90;;
10851;SDS011;5479;52.046;6.314;2023-04-03T05:16:51;3.73;;;2.00;;
10851;SDS011;5479;52.046;6.314;2023-04-03T05:19:20;4.03;;;1.90;;
10851;SDS011;5479;52.046;6.314;2023-04-03T05:21:48;6.67;;;2.27;;
10851;SDS011;5479;52.046;6.314;2023-04-03T05:24:16;5.43;;;2.40;;
10851;SDS011;5479;52.046;6.314;2023-04-03T05:26:44;6.87;;;2.10;;
10851;SDS011;5479;52.046;6.314;2023-04-03T05:29:12;5.13;;;2.07;;
10851;SDS011;5479;52.046;6.314;2023-04-03T05:31:42;3.47;;;1.80;;
10851;SDS011;5479;52.046;6.314;2023-04-03T05:34:11;3.17;;;1.90;;
10851;SDS011;5479;52.046;6.314;2023-04-03T05:36:39;4.90;;;2.20;;
10851;SDS011;5479;52.046;6.314;2023-04-03T05:39:07;4.10;;;2.00;;
10851;SDS011;5479;52.046;6.314;2023-04-03T05:41:37;4.03;;;2.10;;
10851;SDS011;5479;52.046;6.314;2023-04-03T05:44:05;3.43;;;1.77;;
10851;SDS011;5479;52.046;6.314;2023-04-03T05:46:32;5.10;;;2.07;;
10851;SDS011;5479;52.046;6.314;2023-04-03T05:49:00;5.57;;;1.90;;
10851;SDS011;5479;52.046;6.314;2023-04-03T05:51:30;4.20;;;1.80;;
10851;SDS011;5479;52.046;6.314;2023-04-03T05:54:03;5.37;;;2.07;;
10851;SDS011;5479;52.046;6.314;2023-04-03T05:56:37;5.57;;;1.90;;
10851;SDS011;5479;52.046;6.314;2023-04-03T05:59:05;4.20;;;1.90;;
10851;SDS011;5479;52.046;6.314;2023-04-03T06:01:33;5.67;;;1.90;;
10851;SDS011;5479;52.046;6.314;2023-04-03T06:04:01;5.07;;;2.20;;
10851;SDS011;5479;52.046;6.314;2023-04-03T06:06:43;4.60;;;2.10;;
10851;SDS011;5479;52.046;6.314;2023-04-03T06:09:13;4.73;;;2.10;;
10851;SDS011;5479;52.046;6.314;2023-04-03T06:11:42;5.10;;;2.37;;
10851;SDS011;5479;52.046;6.314;2023-04-03T06:14:10;5.03;;;2.20;;
10851;SDS011;5479;52.046;6.314;2023-04-03T06:16:38;5.17;;;2.00;;
10851;SDS011;5479;52.046;6.314;2023-04-03T06:19:07;6.37;;;2.10;;
10851;SDS011;5479;52.046;6.314;2023-04-03T06:21:36;7.00;;;2.00;;
10851;SDS011;5479;52.046;6.314;2023-04-03T06:24:05;4.57;;;2.00;;
10851;SDS011;5479;52.046;6.314;2023-04-03T06:26:34;5.73;;;2.10;;
10851;SDS011;5479;52.046;6.314;2023-04-03T06:29:02;7.20;;;2.27;;
10851;SDS011;5479;52.046;6.314;2023-04-03T06:31:30;6.07;;;2.17;;
10851;SDS011;5479;52.046;6.314;2023-04-03T06:33:59;6.57;;;2.30;;
10851;SDS011;5479;52.046;6.314;2023-04-03T06:36:26;6.23;;;2.10;;
10851;SDS011;5479;52.046;6.314;2023-04-03T06:38:55;4.23;;;2.07;;
10851;SDS011;5479;52.046;6.314;2023-04-03T06:41:24;4.83;;;2.03;;
10851;SDS011;5479;52.046;6.314;2023-04-03T06:43:54;4.73;;;2.17;;
10851;SDS011;5479;52.046;6.314;2023-04-03T06:46:22;4.10;;;1.73;;
10851;SDS011;5479;52.046;6.314;2023-04-03T06:48:51;5.13;;;1.83;;
10851;SDS011;5479;52.046;6.314;2023-04-03T06:51:20;3.53;;;1.70;;
10851;SDS011;5479;52.046;6.314;2023-04-03T06:53:49;5.40;;;1.87;;
10851;SDS011;5479;52.046;6.314;2023-04-03T06:56:19;4.90;;;1.60;;
10851;SDS011;5479;52.046;6.314;2023-04-03T06:58:49;4.43;;;1.80;;
10851;SDS011;5479;52.046;6.314;2023-04-03T07:01:17;4.97;;;1.70;;
10851;SDS011;5479;52.046;6.314;2023-04-03T07:03:46;5.00;;;1.80;;
10851;SDS011;5479;52.046;6.314;2023-04-03T07:06:15;3.63;;;1.80;;
10851;SDS011;5479;52.046;6.314;2023-04-03T07:08:44;4.20;;;1.73;;
10851;SDS011;5479;52.046;6.314;2023-04-03T07:11:14;3.87;;;1.80;;
10851;SDS011;5479;52.046;6.314;2023-04-03T07:13:43;4.47;;;1.60;;
10851;SDS011;5479;52.046;6.314;2023-04-03T07:16:13;4.53;;;1.77;;
10851;SDS011;5479;52.046;6.314;2023-04-03T07:18:41;3.33;;;1.43;;
10851;SDS011;5479;52.046;6.314;2023-04-03T07:21:09;3.17;;;1.70;;
10851;SDS011;5479;52.046;6.314;2023-04-03T07:23:37;4.07;;;1.90;;
10851;SDS011;5479;52.046;6.314;2023-04-03T07:26:05;5.70;;;2.20;;
10851;SDS011;5479;52.046;6.314;2023-04-03T07:28:34;2.93;;;1.50;;
10851;SDS011;5479;52.046;6.314;2023-04-03T07:31:03;4.13;;;1.90;;
10851;SDS011;5479;52.046;6.314;2023-04-03T07:33:35;3.30;;;1.60;;
10851;SDS011;5479;52.046;6.314;2023-04-03T07:36:04;2.63;;;1.50;;
10851;SDS011;5479;52.046;6.314;2023-04-03T07:38:33;3.03;;;1.53;;
10851;SDS011;5479;52.046;6.314;2023-04-03T07:41:01;3.00;;;1.33;;
10851;SDS011;5479;52.046;6.314;2023-04-03T07:43:32;3.50;;;1.60;;
10851;SDS011;5479;52.046;6.314;2023-04-03T07:46:00;3.23;;;1.53;;
10851;SDS011;5479;52.046;6.314;2023-04-03T07:48:28;4.67;;;1.70;;
10851;SDS011;5479;52.046;6.314;2023-04-03T07:51:00;4.17;;;1.80;;
10851;SDS011;5479;52.046;6.314;2023-04-03T07:53:28;3.90;;;1.40;;
10851;SDS011;5479;52.046;6.314;2023-04-03T07:55:56;3.13;;;1.50;;
10851;SDS011;5479;52.046;6.314;2023-04-03T07:58:25;3.40;;;1.40;;
10851;SDS011;5479;52.046;6.314;2023-04-03T08:00:53;3.90;;;1.60;;
10851;SDS011;5479;52.046;6.314;2023-04-03T08:03:21;3.97;;;1.50;;
10851;SDS011;5479;52.046;6.314;2023-04-03T08:05:49;3.80;;;1.53;;
10851;SDS011;5479;52.046;6.314;2023-04-03T08:08:19;3.00;;;1.43;;
10851;SDS011;5479;52.046;6.314;2023-04-03T08:10:49;3.70;;;1.67;;
10851;SDS011;5479;52.046;6.314;2023-04-03T08:13:17;4.40;;;1.40;;
10851;SDS011;5479;52.046;6.314;2023-04-03T08:15:46;3.33;;;1.37;;
10851;SDS011;5479;52.046;6.314;2023-04-03T08:18:14;2.67;;;1.30;;
10851;SDS011;5479;52.046;6.314;2023-04-03T08:20:42;2.97;;;1.43;;
10851;SDS011;5479;52.046;6.314;2023-04-03T08:23:11;2.50;;;1.10;;
10851;SDS011;5479;52.046;6.314;2023-04-03T08:25:41;4.00;;;1.40;;
10851;SDS011;5479;52.046;6.314;2023-04-03T08:28:09;2.53;;;1.40;;
10851;SDS011;5479;52.046;6.314;2023-04-03T08:30:38;3.00;;;1.47;;
10851;SDS011;5479;52.046;6.314;2023-04-03T08:33:06;1.30;;;1.03;;
10851;SDS011;5479;52.046;6.314;2023-04-03T08:35:37;2.63;;;1.30;;
10851;SDS011;5479;52.046;6.314;2023-04-03T08:38:06;2.53;;;1.07;;
10851;SDS011;5479;52.046;6.314;2023-04-03T08:40:34;2.20;;;1.07;;
10851;SDS011;5479;52.046;6.314;2023-04-03T08:43:13;1.70;;;0.97;;
10851;SDS011;5479;52.046;6.314;2023-04-03T08:45:58;3.17;;;1.33;;
10851;SDS011;5479;52.046;6.314;2023-04-03T08:48:31;3.30;;;1.30;;
10851;SDS011;5479;52.046;6.314;2023-04-03T08:51:04;2.30;;;0.90;;
10851;SDS011;5479;52.046;6.314;2023-04-03T08:53:43;2.10;;;1.10;;
10851;SDS011;5479;52.046;6.314;2023-04-03T08:56:16;4.20;;;0.93;;
10851;SDS011;5479;52.046;6.314;2023-04-03T08:58:49;1.63;;;0.90;;
10851;SDS011;5479;52.046;6.314;2023-04-03T09:01:22;1.70;;;1.07;;
10851;SDS011;5479;52.046;6.314;2023-04-03T09:03:54;2.20;;;1.03;;
10851;SDS011;5479;52.046;6.314;2023-04-03T09:06:23;2.83;;;0.90;;
10851;SDS011;5479;52.046;6.314;2023-04-03T09:08:58;1.87;;;1.00;;
10851;SDS011;5479;52.046;6.314;2023-04-03T09:11:36;2.33;;;1.20;;
10851;SDS011;5479;52.046;6.314;2023-04-03T09:14:18;1.97;;;0.80;;
10851;SDS011;5479;52.046;6.314;2023-04-03T09:16:54;1.87;;;0.90;;
10851;SDS011;5479;52.046;6.314;2023-04-03T09:19:28;1.97;;;1.10;;
10851;SDS011;5479;52.046;6.314;2023-04-03T09:22:11;3.10;;;1.10;;
10851;SDS011;5479;52.046;6.314;2023-04-03T09:24:44;2.43;;;1.30;;
10851;SDS011;5479;52.046;6.314;2023-04-03T09:27:14;1.77;;;1.07;;
10851;SDS011;5479;52.046;6.314;2023-04-03T09:29:43;2.00;;;1.00;;
10851;SDS011;5479;52.046;6.314;2023-04-03T09:32:18;2.23;;;1.13;;
10851;SDS011;5479;52.046;6.314;2023-04-03T09:34:49;1.80;;;0.90;;
10851;SDS011;5479;52.046;6.314;2023-04-03T09:37:37;1.57;;;1.00;;
10851;SDS011;5479;52.046;6.314;2023-04-03T09:43:22;2.33;;;1.30;;
10851;SDS011;5479;52.046;6.314;2023-04-03T09:45:57;1.57;;;0.90;;
10851;SDS011;5479;52.046;6.314;2023-04-03T09:48:49;3.70;;;1.20;;
10851;SDS011;5479;52.046;6.314;2023-04-03T09:51:18;1.97;;;1.10;;
10851;SDS011;5479;52.046;6.314;2023-04-03T09:53:46;2.97;;;1.27;;
10851;SDS011;5479;52.046;6.314;2023-04-03T09:56:22;1.87;;;1.30;;
10851;SDS011;5479;52.046;6.314;2023-04-03T09:59:05;2.57;;;1.20;;
10851;SDS011;5479;52.046;6.314;2023-04-03T10:01:37;2.87;;;1.17;;
10851;SDS011;5479;52.046;6.314;2023-04-03T10:04:07;2.73;;;1.20;;
10851;SDS011;5479;52.046;6.314;2023-04-03T10:06:38;2.07;;;1.00;;
10851;SDS011;5479;52.046;6.314;2023-04-03T10:09:19;1.77;;;0.90;;
10851;SDS011;5479;52.046;6.314;2023-04-03T10:11:57;2.50;;;1.10;;
10851;SDS011;5479;52.046;6.314;2023-04-03T10:14:31;3.13;;;1.07;;
10851;SDS011;5479;52.046;6.314;2023-04-03T10:17:03;1.43;;;0.90;;
10851;SDS011;5479;52.046;6.314;2023-04-03T10:19:40;2.30;;;1.27;;
10851;SDS011;5479;52.046;6.314;2023-04-03T10:22:14;2.50;;;1.10;;
10851;SDS011;5479;52.046;6.314;2023-04-03T10:24:50;2.40;;;1.17;;
10851;SDS011;5479;52.046;6.314;2023-04-03T10:27:25;1.83;;;1.20;;
10851;SDS011;5479;52.046;6.314;2023-04-03T10:30:04;2.17;;;1.20;;
10851;SDS011;5479;52.046;6.314;2023-04-03T10:32:51;3.47;;;1.10;;
10851;SDS011;5479;52.046;6.314;2023-04-03T10:35:29;2.23;;;1.00;;
10851;SDS011;5479;52.046;6.314;2023-04-03T10:38:07;1.77;;;1.00;;
10851;SDS011;5479;52.046;6.314;2023-04-03T10:40:45;2.13;;;1.20;;
10851;SDS011;5479;52.046;6.314;2023-04-03T10:43:21;2.27;;;0.97;;
10851;SDS011;5479;52.046;6.314;2023-04-03T10:46:00;2.10;;;1.10;;
10851;SDS011;5479;52.046;6.314;2023-04-03T10:48:37;1.77;;;0.93;;
10851;SDS011;5479;52.046;6.314;2023-04-03T10:51:14;1.57;;;1.00;;
10851;SDS011;5479;52.046;6.314;2023-04-03T10:53:51;2.87;;;1.20;;
10851;SDS011;5479;52.046;6.314;2023-04-03T10:56:27;3.63;;;1.20;;
10851;SDS011;5479;52.046;6.314;2023-04-03T10:59:02;2.37;;;1.10;;
10851;SDS011;5479;52.046;6.314;2023-04-03T11:01:44;3.57;;;1.00;;
10851;SDS011;5479;52.046;6.314;2023-04-03T11:04:17;2.30;;;1.13;;
10851;SDS011;5479;52.046;6.314;2023-04-03T11:06:49;1.90;;;0.90;;
10851;SDS011;5479;52.046;6.314;2023-04-03T11:09:22;3.23;;;1.30;;
10851;SDS011;5479;52.046;6.314;2023-04-03T11:11:53;3.53;;;0.97;;
10851;SDS011;5479;52.046;6.314;2023-04-03T11:14:26;2.03;;;0.87;;
10851;SDS011;5479;52.046;6.314;2023-04-03T11:16:59;1.90;;;1.10;;
10851;SDS011;5479;52.046;6.314;2023-04-03T11:19:35;3.40;;;1.20;;
10851;SDS011;5479;52.046;6.314;2023-04-03T11:22:11;2.40;;;1.10;;
10851;SDS011;5479;52.046;6.314;2023-04-03T11:24:46;2.10;;;1.00;;
10851;SDS011;5479;52.046;6.314;2023-04-03T11:27:25;2.10;;;1.10;;
10851;SDS011;5479;52.046;6.314;2023-04-03T11:29:58;2.20;;;1.17;;
10851;SDS011;5479;52.046;6.314;2023-04-03T11:32:31;1.70;;;0.90;;
10851;SDS011;5479;52.046;6.314;2023-04-03T11:35:11;2.50;;;1.10;;
10851;SDS011;5479;52.046;6.314;2023-04-03T11:37:41;3.07;;;1.23;;
10851;SDS011;5479;52.046;6.314;2023-04-03T11:40:19;2.10;;;0.90;;
10851;SDS011;5479;52.046;6.314;2023-04-03T11:42:54;2.47;;;1.10;;
10851;SDS011;5479;52.046;6.314;2023-04-03T11:45:36;1.93;;;1.03;;
10851;SDS011;5479;52.046;6.314;2023-04-03T11:57:22;1.47;;;1.00;;
10851;SDS011;5479;52.046;6.314;2023-04-03T12:09:33;1.73;;;1.03;;
10851;SDS011;5479;52.046;6.314;2023-04-03T12:12:32;2.30;;;1.17;;
10851;SDS011;5479;52.046;6.314;2023-04-03T12:15:18;2.87;;;1.30;;
10851;SDS011;5479;52.046;6.314;2023-04-03T12:17:53;2.87;;;1.17;;
10851;SDS011;5479;52.046;6.314;2023-04-03T12:23:27;3.27;;;1.53;;
10851;SDS011;5479;52.046;6.314;2023-04-03T12:26:02;3.23;;;1.27;;
10851;SDS011;5479;52.046;6.314;2023-04-03T12:28:48;2.50;;;1.30;;
10851;SDS011;5479;52.046;6.314;2023-04-03T12:31:19;3.30;;;1.13;;
10851;SDS011;5479;52.046;6.314;2023-04-03T12:33:56;3.43;;;1.50;;
10851;SDS011;5479;52.046;6.314;2023-04-03T12:36:41;3.57;;;1.33;;
10851;SDS011;5479;52.046;6.314;2023-04-03T12:39:20;2.37;;;1.23;;
10851;SDS011;5479;52.046;6.314;2023-04-03T12:42:08;1.90;;;1.23;;
10851;SDS011;5479;52.046;6.314;2023-04-03T12:44:50;3.37;;;1.20;;
10851;SDS011;5479;52.046;6.314;2023-04-03T12:47:27;2.03;;;1.07;;
10851;SDS011;5479;52.046;6.314;2023-04-03T12:49:59;3.33;;;1.17;;
10851;SDS011;5479;52.046;6.314;2023-04-03T12:52:33;5.40;;;1.40;;
10851;SDS011;5479;52.046;6.314;2023-04-03T12:55:12;2.10;;;1.20;;
10851;SDS011;5479;52.046;6.314;2023-04-03T12:57:43;2.80;;;1.17;;
10851;SDS011;5479;52.046;6.314;2023-04-03T13:00:18;3.33;;;1.47;;
10851;SDS011;5479;52.046;6.314;2023-04-03T13:02:49;3.37;;;1.67;;
10851;SDS011;5479;52.046;6.314;2023-04-03T13:05:18;3.53;;;1.30;;
10851;SDS011;5479;52.046;6.314;2023-04-03T13:07:48;3.77;;;1.60;;
10851;SDS011;5479;52.046;6.314;2023-04-03T13:10:20;2.57;;;1.27;;
10851;SDS011;5479;52.046;6.314;2023-04-03T13:12:49;2.77;;;1.30;;
10851;SDS011;5479;52.046;6.314;2023-04-03T13:15:18;3.97;;;1.40;;
10851;SDS011;5479;52.046;6.314;2023-04-03T13:17:48;3.40;;;1.30;;
10851;SDS011;5479;52.046;6.314;2023-04-03T13:20:20;2.37;;;1.40;;
10851;SDS011;5479;52.046;6.314;2023-04-03T13:22:54;3.03;;;1.30;;
10851;SDS011;5479;52.046;6.314;2023-04-03T13:25:28;3.50;;;1.20;;
10851;SDS011;5479;52.046;6.314;2023-04-03T13:27:59;4.37;;;1.70;;
10851;SDS011;5479;52.046;6.314;2023-04-03T13:30:28;2.93;;;1.57;;
10851;SDS011;5479;52.046;6.314;2023-04-03T13:32:59;4.47;;;1.63;;
10851;SDS011;5479;52.046;6.314;2023-04-03T13:35:32;4.63;;;1.60;;
10851;SDS011;5479;52.046;6.314;2023-04-03T13:38:04;2.63;;;1.47;;
10851;SDS011;5479;52.046;6.314;2023-04-03T13:40:47;3.67;;;1.67;;
10851;SDS011;5479;52.046;6.314;2023-04-03T13:43:17;3.93;;;1.47;;
10851;SDS011;5479;52.046;6.314;2023-04-03T13:45:55;3.30;;;1.30;;
10851;SDS011;5479;52.046;6.314;2023-04-03T13:48:26;3.83;;;1.70;;
10851;SDS011;5479;52.046;6.314;2023-04-03T13:51:02;4.67;;;1.70;;
10851;SDS011;5479;52.046;6.314;2023-04-03T13:53:34;4.07;;;1.60;;
10851;SDS011;5479;52.046;6.314;2023-04-03T13:56:16;2.80;;;1.43;;
10851;SDS011;5479;52.046;6.314;2023-04-03T13:58:54;3.67;;;1.40;;
10851;SDS011;5479;52.046;6.314;2023-04-03T14:01:24;4.33;;;1.70;;
10851;SDS011;5479;52.046;6.314;2023-04-03T14:03:54;3.23;;;1.57;;
10851;SDS011;5479;52.046;6.314;2023-04-03T14:06:23;2.97;;;1.40;;
10851;SDS011;5479;52.046;6.314;2023-04-03T14:08:52;3.47;;;1.57;;
10851;SDS011;5479;52.046;6.314;2023-04-03T14:11:22;3.23;;;1.63;;
10851;SDS011;5479;52.046;6.314;2023-04-03T14:13:55;2.87;;;1.43;;
10851;SDS011;5479;52.046;6.314;2023-04-03T14:16:25;3.70;;;1.50;;
10851;SDS011;5479;52.046;6.314;2023-04-03T14:18:57;3.47;;;1.43;;
10851;SDS011;5479;52.046;6.314;2023-04-03T14:21:25;3.70;;;1.60;;
10851;SDS011;5479;52.046;6.314;2023-04-03T14:23:54;3.73;;;1.60;;
10851;SDS011;5479;52.046;6.314;2023-04-03T14:26:24;2.83;;;1.50;;
10851;SDS011;5479;52.046;6.314;2023-04-03T14:28:54;4.50;;;1.63;;
10851;SDS011;5479;52.046;6.314;2023-04-03T14:31:22;3.43;;;1.43;;
10851;SDS011;5479;52.046;6.314;2023-04-03T14:33:51;3.90;;;1.73;;
10851;SDS011;5479;52.046;6.314;2023-04-03T14:36:20;4.37;;;1.60;;
10851;SDS011;5479;52.046;6.314;2023-04-03T14:38:51;4.97;;;1.70;;
10851;SDS011;5479;52.046;6.314;2023-04-03T14:41:21;2.07;;;1.40;;
10851;SDS011;5479;52.046;6.314;2023-04-03T14:43:52;3.40;;;1.60;;
10851;SDS011;5479;52.046;6.314;2023-04-03T14:46:22;4.73;;;1.70;;
10851;SDS011;5479;52.046;6.314;2023-04-03T14:48:55;3.27;;;1.40;;
10851;SDS011;5479;52.046;6.314;2023-04-03T14:51:23;3.00;;;1.50;;
10851;SDS011;5479;52.046;6.314;2023-04-03T14:53:51;2.60;;;1.33;;
10851;SDS011;5479;52.046;6.314;2023-04-03T14:56:23;3.53;;;1.60;;
10851;SDS011;5479;52.046;6.314;2023-04-03T14:58:56;3.17;;;1.50;;
10851;SDS011;5479;52.046;6.314;2023-04-03T15:01:26;4.03;;;1.60;;
10851;SDS011;5479;52.046;6.314;2023-04-03T15:03:55;4.27;;;1.50;;
10851;SDS011;5479;52.046;6.314;2023-04-03T15:06:23;4.30;;;1.70;;
10851;SDS011;5479;52.046;6.314;2023-04-03T15:08:52;4.00;;;1.80;;
10851;SDS011;5479;52.046;6.314;2023-04-03T15:11:20;3.63;;;1.70;;
10851;SDS011;5479;52.046;6.314;2023-04-03T15:13:48;3.87;;;1.80;;
10851;SDS011;5479;52.046;6.314;2023-04-03T15:16:18;3.33;;;1.60;;
10851;SDS011;5479;52.046;6.314;2023-04-03T15:18:47;3.67;;;1.50;;
10851;SDS011;5479;52.046;6.314;2023-04-03T15:21:16;3.63;;;1.73;;
10851;SDS011;5479;52.046;6.314;2023-04-03T15:23:44;4.63;;;2.13;;
10851;SDS011;5479;52.046;6.314;2023-04-03T15:26:12;3.63;;;1.53;;
10851;SDS011;5479;52.046;6.314;2023-04-03T15:28:41;4.70;;;1.80;;
10851;SDS011;5479;52.046;6.314;2023-04-03T15:31:10;5.33;;;2.03;;
10851;SDS011;5479;52.046;6.314;2023-04-03T15:33:39;2.80;;;1.63;;
10851;SDS011;5479;52.046;6.314;2023-04-03T15:36:07;4.13;;;1.90;;
10851;SDS011;5479;52.046;6.314;2023-04-03T15:38:36;3.53;;;1.83;;
10851;SDS011;5479;52.046;6.314;2023-04-03T15:41:04;3.63;;;1.93;;
10851;SDS011;5479;52.046;6.314;2023-04-03T15:43:33;3.60;;;1.40;;
10851;SDS011;5479;52.046;6.314;2023-04-03T15:46:01;4.60;;;1.70;;
10851;SDS011;5479;52.046;6.314;2023-04-03T15:48:30;2.70;;;1.50;;
10851;SDS011;5479;52.046;6.314;2023-04-03T15:50:59;4.10;;;1.60;;
10851;SDS011;5479;52.046;6.314;2023-04-03T15:53:27;3.23;;;1.80;;